Time;durP1;ratioP1;P1;durP2;ratioP2;P2;SDS_P1;SDS_P2;PMS_P1;PMS_P2;Temp;Humidity;BMP_temperature;BMP_pressure;BME280_temperature;BME280_humidity;BME280_pressure;Samples;Min_cycle;Max_cycle;Signal;HPM_P1;HPM_P2
2021/03/15 00:02:23;;;;;;;59.70;31.45;;;5.30;94.50;;;;;;5093956;28;20373;-87
2021/03/15 00:04:49;;;;;;;57.67;31.05;;;5.20;94.50;;;;;;5096540;28;20023;-77
2021/03/15 00:07:14;;;;;;;68.53;34.00;;;5.30;94.50;;;;;;5095977;28;20107;-77
2021/03/15 00:09:41;;;;;;;68.07;32.20;;;5.20;94.50;;;;;;5097553;28;20031;-77
2021/03/15 00:12:08;;;;;;;76.47;34.35;;;5.20;94.50;;;;;;5097610;28;20107;-76
2021/03/15 00:14:34;;;;;;;84.18;37.47;;;5.20;94.60;;;;;;5097443;28;20024;-76
2021/03/15 00:17:00;;;;;;;91.88;42.55;;;5.20;94.60;;;;;;5095823;28;20488;-77
2021/03/15 00:19:25;;;;;;;113.03;47.92;;;5.20;94.50;;;;;;5096139;28;20020;-77
2021/03/15 00:21:51;;;;;;;111.10;46.75;;;5.10;94.50;;;;;;5095685;28;20044;-77
2021/03/15 00:24:18;;;;;;;101.03;41.75;;;5.10;94.50;;;;;;5096988;28;20045;-77
2021/03/15 00:26:44;;;;;;;105.10;43.67;;;5.20;94.50;;;;;;5095802;28;20028;-77
2021/03/15 00:29:09;;;;;;;124.32;50.13;;;5.20;94.50;;;;;;5078787;28;20435;-77
2021/03/15 00:31:35;;;;;;;101.03;41.92;;;5.10;94.40;;;;;;5078591;28;20111;-77
2021/03/15 00:34:01;;;;;;;99.20;44.95;;;5.20;94.50;;;;;;5095328;28;20470;-77
2021/03/15 00:36:26;;;;;;;96.32;42.08;;;5.10;94.40;;;;;;5096877;28;20462;-77
2021/03/15 00:38:52;;;;;;;111.22;45.65;;;5.10;94.50;;;;;;5095033;28;20032;-77
2021/03/15 00:41:19;;;;;;;88.72;40.38;;;5.10;94.50;;;;;;5095317;28;20064;-77
2021/03/15 00:43:46;;;;;;;98.05;39.45;;;5.10;94.50;;;;;;5095528;28;20412;-77
2021/03/15 00:46:11;;;;;;;100.85;42.25;;;5.10;94.50;;;;;;5095569;28;20020;-77
2021/03/15 00:48:39;;;;;;;95.22;40.90;;;5.10;94.40;;;;;;5096727;28;20055;-77
2021/03/15 00:51:04;;;;;;;79.20;37.72;;;5.10;94.40;;;;;;5096756;28;20591;-77
2021/03/15 00:53:31;;;;;;;91.90;39.30;;;5.20;94.40;;;;;;5095448;28;20115;-77
2021/03/15 00:55:57;;;;;;;92.85;42.35;;;5.10;94.30;;;;;;5095018;28;20024;-77
2021/03/15 00:58:23;;;;;;;71.57;37.47;;;5.20;94.30;;;;;;5096145;28;20039;-77
2021/03/15 01:00:50;;;;;;;78.10;36.75;;;5.20;94.40;;;;;;5096200;28;20032;-77
2021/03/15 01:03:17;;;;;;;69.28;33.90;;;5.20;94.30;;;;;;5095315;28;20107;-77
2021/03/15 01:05:53;;;;;;;70.28;34.22;;;5.20;94.40;;;;;;5094945;28;20020;-77
2021/03/15 01:08:19;;;;;;;64.70;33.58;;;5.20;94.30;;;;;;5096144;28;20019;-77
2021/03/15 01:10:46;;;;;;;65.07;34.25;;;5.20;94.30;;;;;;5096082;28;20020;-77
2021/03/15 01:13:12;;;;;;;72.05;36.75;;;5.20;94.30;;;;;;5094497;28;20472;-77
2021/03/15 01:15:39;;;;;;;58.42;33.08;;;5.20;94.30;;;;;;5077701;28;20500;-77
2021/03/15 01:18:06;;;;;;;62.83;34.97;;;5.20;94.30;;;;;;5094659;28;20028;-77
2021/03/15 01:20:32;;;;;;;62.10;34.08;;;5.20;94.20;;;;;;5094563;28;20512;-77
2021/03/15 01:22:59;;;;;;;65.60;36.83;;;5.20;94.30;;;;;;5094610;28;20033;-77
2021/03/15 01:25:28;;;;;;;62.47;35.17;;;5.10;94.30;;;;;;5095977;28;20024;-77
2021/03/15 01:27:54;;;;;;;55.50;32.25;;;5.10;94.30;;;;;;5094530;28;20131;-77
2021/03/15 01:30:21;;;;;;;52.65;32.33;;;5.10;94.20;;;;;;5095558;28;20521;-77
2021/03/15 01:32:47;;;;;;;53.45;31.05;;;5.20;94.30;;;;;;5094497;28;20111;-77
2021/03/15 01:35:14;;;;;;;50.67;29.50;;;5.10;94.20;;;;;;5095437;28;20078;-77
2021/03/15 01:37:41;;;;;;;53.97;30.27;;;5.20;94.20;;;;;;5094407;28;20043;-77
2021/03/15 01:40:07;;;;;;;50.88;29.20;;;5.10;94.10;;;;;;5094178;28;20060;-77
2021/03/15 01:42:33;;;;;;;58.72;32.42;;;5.10;94.20;;;;;;5094438;28;20089;-77
2021/03/15 01:44:59;;;;;;;61.33;34.38;;;5.10;94.10;;;;;;5094460;28;20024;-77
2021/03/15 01:47:25;;;;;;;69.90;37.28;;;5.10;94.10;;;;;;5096005;28;20095;-77
2021/03/15 01:49:51;;;;;;;70.10;34.08;;;5.10;94.10;;;;;;5094459;28;20020;-78
2021/03/15 01:52:20;;;;;;;93.68;45.15;;;5.10;94.10;;;;;;5094059;28;20085;-78
2021/03/15 01:54:47;;;;;;;89.78;39.80;;;5.10;94.10;;;;;;5094257;28;20024;-78
2021/03/15 01:57:12;;;;;;;96.75;41.88;;;5.10;94.10;;;;;;5095225;28;20024;-77
2021/03/15 01:59:38;;;;;;;111.07;44.42;;;5.10;94.10;;;;;;5094813;28;20038;-77
2021/03/15 02:02:05;;;;;;;113.72;47.13;;;5.10;94.10;;;;;;5095102;28;20028;-77
2021/03/15 02:04:30;;;;;;;92.55;39.05;;;5.10;94.10;;;;;;5095038;28;20024;-78
2021/03/15 02:06:56;;;;;;;86.00;40.17;;;5.10;94.10;;;;;;5093488;28;20066;-77
2021/03/15 02:09:23;;;;;;;75.20;36.70;;;5.00;94.10;;;;;;5094773;28;20024;-77
2021/03/15 02:12:11;;;;;;;70.55;34.50;;;5.00;94.10;;;;;;5093440;28;20060;-78
2021/03/15 02:15:15;;;;;;;63.65;32.38;;;5.00;94.20;;;;;;5093627;28;20021;-78
2021/03/15 02:18:23;;;;;;;54.45;29.70;;;4.90;94.10;;;;;;5093550;28;20035;-77
2021/03/15 02:21:34;;;;;;;57.63;31.48;;;4.90;94.10;;;;;;5065835;28;20054;-77
2021/03/15 02:24:24;;;;;;;61.15;33.88;;;4.90;94.20;;;;;;5079482;28;20040;-77
2021/03/15 02:27:14;;;;;;;64.13;34.83;;;4.90;94.30;;;;;;5093331;28;20047;-77
2021/03/15 02:30:31;;;;;;;68.97;35.53;;;4.80;94.40;;;;;;5094920;28;20260;-78
2021/03/15 02:33:35;;;;;;;59.28;29.65;;;4.80;94.40;;;;;;5060565;28;20528;-77
2021/03/15 02:36:04;;;;;;;62.05;31.73;;;4.80;94.50;;;;;;5062100;28;20040;-77
2021/03/15 02:38:35;;;;;;;58.97;33.17;;;4.80;94.60;;;;;;5094441;28;20048;-77
2021/03/15 02:41:01;;;;;;;;;;;4.80;94.60;;;;;;5077012;28;20040;-77
2021/03/15 02:43:45;;;;;;;70.95;34.58;;;4.80;94.70;;;;;;5092884;28;19912;-77
2021/03/15 02:46:17;;;;;;;63.25;33.58;;;4.80;94.70;;;;;;5094428;28;20020;-77
2021/03/15 02:48:45;;;;;;;75.88;38.15;;;4.80;94.60;;;;;;5093477;28;20024;-78
2021/03/15 02:51:17;;;;;;;82.00;40.22;;;4.80;94.80;;;;;;5076298;28;20032;-77
2021/03/15 02:53:44;;;;;;;69.55;34.33;;;4.80;94.80;;;;;;5092975;28;20027;-78
2021/03/15 02:56:18;;;;;;;70.03;35.80;;;4.90;94.70;;;;;;5092953;28;20060;-77
2021/03/15 02:58:45;;;;;;;76.35;38.80;;;4.90;94.60;;;;;;5089742;28;20040;-78
2021/03/15 03:01:12;;;;;;;85.18;43.05;;;4.90;94.60;;;;;;5074121;28;20477;-77
2021/03/15 03:03:41;;;;;;;77.28;37.75;;;4.90;94.60;;;;;;5074155;28;20115;-78
2021/03/15 03:06:09;;;;;;;92.30;43.38;;;4.90;94.70;;;;;;5072731;28;20025;-78
2021/03/15 03:08:36;;;;;;;86.07;39.42;;;4.90;94.70;;;;;;5072694;28;20117;-78
2021/03/15 03:11:02;;;;;;;109.93;48.20;;;5.00;94.60;;;;;;5074032;28;20470;-78
2021/03/15 03:13:33;;;;;;;86.30;41.60;;;4.90;95.00;;;;;;5072711;28;20029;-77
2021/03/15 03:15:59;;;;;;;88.85;39.80;;;5.00;94.90;;;;;;5073810;28;20091;-77
2021/03/15 03:18:26;;;;;;;86.40;42.85;;;5.00;94.90;;;;;;5073370;28;20083;-78
2021/03/15 03:20:57;;;;;;;77.88;38.70;;;4.90;95.10;;;;;;5072034;28;20127;-78
2021/03/15 03:23:31;;;;;;;68.95;34.30;;;5.00;94.90;;;;;;5088892;28;20131;-78
2021/03/15 03:25:58;;;;;;;72.13;36.75;;;5.00;95.00;;;;;;5073613;28;20024;-77
2021/03/15 03:28:25;;;;;;;75.50;37.58;;;5.00;94.90;;;;;;5072224;28;20039;-78
2021/03/15 03:30:54;;;;;;;132.75;52.63;;;5.00;95.00;;;;;;5073051;28;20111;-78
2021/03/15 03:33:21;;;;;;;148.77;57.70;;;5.00;95.00;;;;;;5056020;28;20116;-78
2021/03/15 03:35:48;;;;;;;128.30;52.47;;;5.00;95.10;;;;;;5072021;28;20036;-77
2021/03/15 03:38:14;;;;;;;109.10;44.88;;;5.00;95.20;;;;;;5074598;28;20495;-78
2021/03/15 03:40:41;;;;;;;97.25;44.30;;;5.00;94.90;;;;;;5080675;28;20117;-77
2021/03/15 03:43:08;;;;;;;79.97;39.60;;;5.10;95.20;;;;;;5097844;28;20039;-78
2021/03/15 03:45:33;;;;;;;77.82;38.70;;;5.10;94.90;;;;;;5076138;28;20027;-77
2021/03/15 03:48:04;;;;;;;81.82;38.83;;;5.10;95.20;;;;;;5092546;28;20020;-78
2021/03/15 03:50:33;;;;;;;78.05;40.22;;;5.10;95.10;;;;;;5076115;28;20521;-78
2021/03/15 03:53:15;;;;;;;83.15;37.30;;;5.10;95.10;;;;;;5076185;28;20577;-78
2021/03/15 03:56:10;;;;;;;100.65;46.38;;;5.10;95.10;;;;;;5093202;28;20381;-78
2021/03/15 03:58:45;;;;;;;130.45;49.38;;;5.10;95.10;;;;;;5076325;28;20386;-78
2021/03/15 04:01:13;;;;;;;119.00;49.63;;;5.10;95.30;;;;;;5092331;28;20029;-77
2021/03/15 04:03:42;;;;;;;91.47;44.03;;;5.10;95.30;;;;;;5093064;28;20027;-77
2021/03/15 04:06:12;;;;;;;100.28;48.03;;;5.10;95.20;;;;;;5076862;28;20032;-78
2021/03/15 04:09:13;;;;;;;79.00;39.95;;;5.10;95.30;;;;;;5076275;28;20390;-77
2021/03/15 04:11:48;;;;;;;;;;;5.10;95.30;;;;;;5035531;28;20473;-77
2021/03/15 04:14:39;;;;;;;60.67;32.85;;;5.10;95.40;;;;;;5066070;28;19904;-77
2021/03/15 04:17:08;;;;;;;81.93;41.95;;;5.10;95.20;;;;;;5076078;28;20377;-77
2021/03/15 04:19:49;;;;;;;69.28;38.33;;;5.10;95.10;;;;;;5075181;28;20036;-77
2021/03/15 04:22:16;;;;;;;68.75;35.45;;;5.20;95.30;;;;;;5074441;28;20398;-78
2021/03/15 04:24:43;;;;;;;72.78;40.75;;;5.20;95.20;;;;;;5058386;28;20098;-77
2021/03/15 04:27:10;;;;;;;72.60;39.60;;;5.20;95.20;;;;;;5095430;28;20032;-78
2021/03/15 04:29:38;;;;;;;73.80;42.45;;;5.20;95.20;;;;;;5095541;28;20028;-78
2021/03/15 04:32:06;;;;;;;76.10;44.30;;;5.20;95.10;;;;;;5096809;28;20422;-78
2021/03/15 04:34:33;;;;;;;78.38;44.58;;;5.20;95.50;;;;;;5096772;28;20020;-78
2021/03/15 04:37:00;;;;;;;72.00;41.42;;;5.20;95.20;;;;;;5095050;28;20020;-78
2021/03/15 04:39:29;;;;;;;89.78;49.10;;;5.20;95.20;;;;;;5095019;28;20119;-78
2021/03/15 04:41:57;;;;;;;73.43;41.13;;;5.20;95.20;;;;;;5095272;28;20116;-81
2021/03/15 04:44:24;;;;;;;87.75;45.95;;;5.20;95.20;;;;;;5095021;28;20078;-80
2021/03/15 04:46:55;;;;;;;83.00;48.17;;;5.30;95.20;;;;;;5096144;28;20384;-80
2021/03/15 04:49:22;;;;;;;80.15;43.40;;;5.20;95.40;;;;;;5094447;28;20424;-82
2021/03/15 04:51:50;;;;;;;88.72;45.08;;;5.20;95.30;;;;;;5096391;28;20036;-79
2021/03/15 04:54:16;;;;;;;80.30;42.22;;;5.30;95.20;;;;;;5096386;28;20028;-80
2021/03/15 04:56:43;;;;;;;79.55;40.97;;;5.30;95.30;;;;;;5096296;28;20427;-80
2021/03/15 04:59:11;;;;;;;80.15;40.92;;;5.20;95.30;;;;;;5096096;28;20385;-80
2021/03/15 05:01:40;;;;;;;82.22;41.05;;;5.20;95.30;;;;;;5094437;28;20032;-80
2021/03/15 05:04:10;;;;;;;111.60;48.88;;;5.20;95.40;;;;;;5095129;28;20024;-80
2021/03/15 05:06:38;;;;;;;120.88;52.90;;;5.20;95.60;;;;;;5096117;28;20048;-80
2021/03/15 05:09:07;;;;;;;106.57;44.47;;;5.20;95.70;;;;;;5077867;28;20035;-79
2021/03/15 05:11:36;;;;;;;114.00;51.35;;;5.20;95.60;;;;;;5077911;28;20552;-79
2021/03/15 05:14:05;;;;;;;107.05;49.22;;;5.10;95.80;;;;;;5094456;28;20380;-78
2021/03/15 05:16:40;;;;;;;107.68;46.17;;;5.10;96.00;;;;;;5094426;28;20466;-79
2021/03/15 05:19:08;;;;;;;109.15;47.10;;;5.10;96.00;;;;;;5095541;28;20039;-79
2021/03/15 05:21:38;;;;;;;109.15;46.53;;;5.20;95.90;;;;;;5094274;28;20039;-79
2021/03/15 05:24:06;;;;;;;108.90;43.47;;;5.20;95.80;;;;;;5095619;28;20424;-79
2021/03/15 05:26:35;;;;;;;85.97;40.20;;;5.20;95.80;;;;;;5095657;28;20031;-80
2021/03/15 05:29:04;;;;;;;96.13;44.20;;;5.30;95.70;;;;;;5095160;28;20815;-78
2021/03/15 05:31:31;;;;;;;99.65;48.33;;;5.30;95.70;;;;;;5077650;28;20174;-77
2021/03/15 05:33:57;;;;;;;104.85;48.47;;;5.30;95.70;;;;;;5077695;28;20409;-78
2021/03/15 05:36:24;;;;;;;108.40;50.65;;;5.30;95.70;;;;;;5077261;28;20385;-77
2021/03/15 05:38:50;;;;;;;91.57;43.17;;;5.30;95.70;;;;;;5095436;28;20032;-77
2021/03/15 05:41:18;;;;;;;116.95;50.22;;;5.40;95.70;;;;;;5095499;28;20077;-78
2021/03/15 05:44:09;;;;;;;146.00;54.15;;;5.40;95.70;;;;;;5073885;28;20041;-77
2021/03/15 05:46:53;;;;;;;148.05;54.33;;;5.40;95.60;;;;;;5073782;28;20030;-77
2021/03/15 05:49:37;;;;;;;106.20;43.65;;;5.40;95.90;;;;;;5090893;28;20020;-79
2021/03/15 05:52:51;;;;;;;94.07;39.83;;;5.40;95.70;;;;;;5094141;28;20039;-78
2021/03/15 05:55:40;;;;;;;71.95;32.80;;;5.40;95.80;;;;;;5023942;28;20538;-79
2021/03/15 05:58:24;;;;;;;69.22;33.03;;;5.40;95.80;;;;;;5093867;28;20508;-78
2021/03/15 06:00:53;;;;;;;74.53;33.83;;;5.40;95.60;;;;;;5093869;28;20035;-78
2021/03/15 06:03:22;;;;;;;67.00;33.03;;;5.40;95.80;;;;;;5094917;28;20461;-79
2021/03/15 06:05:50;;;;;;;68.00;30.17;;;5.40;95.70;;;;;;5093422;28;20023;-78
2021/03/15 06:08:23;;;;;;;71.20;32.80;;;5.50;95.70;;;;;;5093161;28;20083;-79
2021/03/15 06:11:08;;;;;;;78.90;35.15;;;5.50;95.80;;;;;;5094724;28;20095;-78
2021/03/15 06:13:35;;;;;;;69.00;33.08;;;5.40;95.70;;;;;;5093201;28;20109;-79
2021/03/15 06:16:03;;;;;;;74.45;33.97;;;5.40;95.80;;;;;;5093323;28;20069;-78
2021/03/15 06:18:29;;;;;;;70.95;33.75;;;5.40;95.90;;;;;;5094814;28;20031;-78
2021/03/15 06:20:56;;;;;;;70.40;33.65;;;5.40;95.80;;;;;;5075845;28;20055;-78
2021/03/15 06:23:24;;;;;;;91.45;39.72;;;5.50;95.70;;;;;;5094170;28;20037;-78
2021/03/15 06:25:50;;;;;;;72.63;34.58;;;5.40;95.90;;;;;;5094725;28;20051;-78
2021/03/15 06:28:18;;;;;;;78.32;36.58;;;5.40;96.00;;;;;;5093041;28;20106;-78
2021/03/15 06:30:47;;;;;;;62.38;31.08;;;5.40;96.10;;;;;;5093060;28;20173;-79
2021/03/15 06:33:14;;;;;;;66.60;31.25;;;5.50;96.00;;;;;;5092596;28;20028;-78
2021/03/15 06:35:41;;;;;;;71.45;31.63;;;5.50;95.90;;;;;;5093240;28;20102;-78
2021/03/15 06:38:07;;;;;;;75.47;33.65;;;5.50;95.90;;;;;;5075809;28;20483;-79
2021/03/15 06:40:35;;;;;;;68.28;32.38;;;5.60;95.90;;;;;;5092671;28;20046;-79
2021/03/15 06:43:05;;;;;;;73.10;33.45;;;5.70;95.80;;;;;;5092931;28;20039;-78
2021/03/15 06:45:31;;;;;;;88.03;40.55;;;5.70;95.80;;;;;;5092769;28;20027;-78
2021/03/15 06:47:57;;;;;;;76.22;34.60;;;5.70;95.90;;;;;;5092533;28;20114;-76
2021/03/15 06:50:23;;;;;;;63.15;29.63;;;5.70;96.20;;;;;;5075629;28;20024;-79
2021/03/15 06:52:52;;;;;;;62.95;29.90;;;5.70;95.80;;;;;;5092989;28;20028;-79
2021/03/15 06:55:36;;;;;;;61.28;28.40;;;5.80;95.70;;;;;;5092799;28;20423;-79
2021/03/15 06:58:33;;;;;;;75.40;34.15;;;5.80;95.70;;;;;;5093459;28;20051;-79
2021/03/15 07:01:20;;;;;;;64.45;28.95;;;5.80;95.80;;;;;;5092796;28;20107;-79
2021/03/15 07:03:48;;;;;;;70.22;30.20;;;5.90;95.70;;;;;;5093977;28;20377;-79
2021/03/15 07:06:17;;;;;;;60.08;30.02;;;5.90;95.60;;;;;;5092685;28;20023;-79
2021/03/15 07:08:44;;;;;;;70.07;31.88;;;5.90;95.60;;;;;;5092484;28;20020;-79
2021/03/15 07:11:27;;;;;;;61.28;30.05;;;6.00;95.60;;;;;;5092671;28;20027;-79
2021/03/15 07:13:53;;;;;;;60.90;27.90;;;6.00;95.60;;;;;;5092602;28;20111;-79
2021/03/15 07:16:28;;;;;;;64.07;29.73;;;6.10;95.60;;;;;;5093553;28;20108;-79
2021/03/15 07:18:55;;;;;;;66.70;30.20;;;6.10;95.60;;;;;;5092862;28;20035;-79
2021/03/15 07:21:33;;;;;;;64.78;29.55;;;6.10;95.50;;;;;;5075257;28;20048;-79
2021/03/15 07:24:08;;;;;;;66.45;30.75;;;6.10;95.60;;;;;;5092322;28;20067;-79
2021/03/15 07:26:36;;;;;;;72.38;32.45;;;6.10;95.50;;;;;;5093312;28;20024;-79
2021/03/15 07:29:12;;;;;;;63.70;29.52;;;6.10;95.60;;;;;;5092449;28;20781;-79
2021/03/15 07:31:38;;;;;;;60.63;28.00;;;6.10;95.60;;;;;;5092351;28;20028;-79
2021/03/15 07:34:04;;;;;;;56.88;28.00;;;6.20;95.50;;;;;;5092394;28;20024;-79
2021/03/15 07:36:31;;;;;;;62.13;29.35;;;6.30;95.50;;;;;;5092736;28;20047;-79
2021/03/15 07:39:00;;;;;;;65.18;29.85;;;6.30;95.50;;;;;;5093670;28;20024;-79
2021/03/15 07:41:27;;;;;;;68.75;31.13;;;6.30;95.40;;;;;;5092300;28;20385;-79
2021/03/15 07:43:53;;;;;;;67.43;32.22;;;6.30;95.50;;;;;;5092220;28;20028;-79
2021/03/15 07:46:29;;;;;;;60.22;27.92;;;6.30;95.50;;;;;;5092135;28;20028;-79
2021/03/15 07:48:58;;;;;;;69.72;30.60;;;6.30;95.50;;;;;;5092327;28;20020;-79
2021/03/15 07:51:35;;;;;;;62.95;29.95;;;6.30;95.50;;;;;;5092323;28;20032;-79
2021/03/15 07:54:06;;;;;;;60.38;29.77;;;6.40;95.40;;;;;;5092262;28;20386;-79
2021/03/15 07:56:31;;;;;;;;;;;6.30;95.30;;;;;;5092608;28;20450;-79
2021/03/15 07:58:57;;;;;;;61.25;28.92;;;6.40;95.10;;;;;;5092456;28;19999;-79
2021/03/15 08:01:27;;;;;;;64.22;29.08;;;6.30;95.00;;;;;;5093372;28;20498;-79
2021/03/15 08:03:53;;;;;;;61.33;30.45;;;6.40;95.00;;;;;;5075494;28;20036;-79
2021/03/15 08:06:21;;;;;;;66.57;32.08;;;6.30;94.90;;;;;;5092165;28;20111;-79
2021/03/15 08:08:49;;;;;;;66.55;32.38;;;6.30;94.90;;;;;;5075131;28;20367;-79
2021/03/15 08:11:17;;;;;;;63.88;30.73;;;6.30;94.80;;;;;;5092161;28;20485;-79
2021/03/15 08:13:55;;;;;;;54.22;28.30;;;6.30;94.90;;;;;;5091836;28;20027;-79
2021/03/15 08:16:23;;;;;;;67.35;31.45;;;6.30;94.80;;;;;;5092323;28;20025;-80
2021/03/15 08:18:52;;;;;;;60.25;30.67;;;6.30;94.70;;;;;;5092045;28;20020;-80
2021/03/15 08:21:28;;;;;;;61.00;29.98;;;6.40;94.70;;;;;;5091723;28;20044;-80
2021/03/15 08:23:56;;;;;;;72.00;34.88;;;6.30;94.60;;;;;;5093483;28;20024;-79
2021/03/15 08:26:22;;;;;;;70.18;32.58;;;6.20;94.60;;;;;;5096034;28;20031;-79
2021/03/15 08:28:51;;;;;;;69.93;31.48;;;6.20;94.60;;;;;;5096699;28;20424;-80
2021/03/15 08:31:25;;;;;;;80.57;38.10;;;6.10;94.60;;;;;;5096907;28;20028;-79
2021/03/15 08:33:51;;;;;;;76.63;35.55;;;6.00;94.50;;;;;;5095567;28;20431;-80
2021/03/15 08:36:18;;;;;;;73.72;34.40;;;6.00;94.70;;;;;;5096814;28;20028;-80
2021/03/15 08:38:45;;;;;;;70.63;33.20;;;6.00;94.70;;;;;;5096740;28;20478;-79
2021/03/15 08:41:31;;;;;;;74.05;32.38;;;6.00;94.70;;;;;;5096667;28;20028;-79
2021/03/15 08:43:59;;;;;;;72.45;33.05;;;6.00;94.60;;;;;;5095347;28;20039;-79
2021/03/15 08:46:25;;;;;;;71.40;33.08;;;6.00;94.60;;;;;;5096627;28;20099;-79
2021/03/15 08:48:59;;;;;;;76.38;36.67;;;5.90;94.60;;;;;;5095603;28;20020;-79
2021/03/15 08:51:38;;;;;;;65.90;31.42;;;5.90;94.60;;;;;;5094755;28;20032;-79
2021/03/15 08:54:06;;;;;;;66.88;30.88;;;5.90;94.70;;;;;;5095121;28;20028;-79
2021/03/15 08:56:31;;;;;;;78.78;36.03;;;5.90;94.70;;;;;;5096465;28;20058;-79
2021/03/15 08:58:58;;;;;;;61.25;30.52;;;5.90;94.70;;;;;;5095131;28;20024;-79
2021/03/15 09:01:26;;;;;;;60.95;29.52;;;5.90;94.70;;;;;;5078311;28;20032;-79
2021/03/15 09:03:56;;;;;;;62.40;30.80;;;6.00;94.80;;;;;;5095022;28;20024;-79
2021/03/15 09:06:36;;;;;;;68.03;33.13;;;6.00;94.70;;;;;;5095222;28;20489;-79
2021/03/15 09:09:33;;;;;;;66.70;31.77;;;6.00;94.70;;;;;;5095245;28;20024;-79
2021/03/15 09:12:01;;;;;;;65.13;31.02;;;6.00;94.70;;;;;;5096187;28;20493;-79
2021/03/15 09:14:33;;;;;;;66.60;32.88;;;6.10;94.70;;;;;;5095767;28;20501;-79
2021/03/15 09:17:17;;;;;;;68.93;33.65;;;6.10;94.70;;;;;;5094838;28;20024;-79
2021/03/15 09:19:44;;;;;;;62.63;30.77;;;6.20;94.70;;;;;;5094632;28;20115;-79
2021/03/15 09:22:27;;;;;;;72.30;35.67;;;6.20;94.70;;;;;;5095344;28;20056;-79
2021/03/15 09:25:03;;;;;;;65.90;34.90;;;6.30;94.70;;;;;;5095914;28;20020;-79
2021/03/15 09:27:37;;;;;;;82.38;41.83;;;6.30;94.60;;;;;;5094413;28;20077;-79
2021/03/15 09:30:17;;;;;;;78.38;39.20;;;6.20;94.30;;;;;;5096099;28;20059;-79
2021/03/15 09:32:45;;;;;;;;;;;6.10;94.10;;;;;;5096140;28;20024;-79
2021/03/15 09:35:19;;;;;;;64.50;34.05;;;6.00;94.30;;;;;;5095408;28;20003;-79
2021/03/15 09:38:03;;;;;;;68.78;34.40;;;6.10;94.40;;;;;;5094615;28;20488;-79
2021/03/15 09:40:43;;;;;;;64.80;31.73;;;6.10;94.30;;;;;;5094516;28;20120;-79
2021/03/15 09:43:18;;;;;;;62.33;31.83;;;6.20;94.30;;;;;;5092091;28;20123;-79
2021/03/15 09:45:44;;;;;;;71.90;37.70;;;6.10;94.00;;;;;;5095333;28;20032;-80
2021/03/15 09:48:22;;;;;;;70.07;35.35;;;6.00;94.00;;;;;;5093807;28;20082;-80
2021/03/15 09:51:06;;;;;;;63.80;32.67;;;5.90;94.00;;;;;;5095357;28;20035;-80
2021/03/15 09:53:32;;;;;;;57.33;29.45;;;6.00;94.20;;;;;;5094126;28;20017;-80
2021/03/15 09:56:08;;;;;;;68.30;36.17;;;6.00;94.10;;;;;;5077247;28;20074;-79
2021/03/15 09:58:35;;;;;;;65.45;33.63;;;6.00;94.00;;;;;;5095032;28;20054;-79
2021/03/15 10:01:09;;;;;;;71.43;35.03;;;6.00;94.10;;;;;;5093855;28;20028;-79
2021/03/15 10:03:35;;;;;;;64.07;33.47;;;6.00;94.00;;;;;;5093957;28;20469;-79
2021/03/15 10:06:02;;;;;;;63.28;31.70;;;6.00;94.10;;;;;;5093778;28;20038;-79
2021/03/15 10:08:28;;;;;;;64.63;31.27;;;6.00;94.20;;;;;;5094011;28;20020;-79
2021/03/15 10:10:56;;;;;;;61.42;30.50;;;6.00;94.30;;;;;;5094687;28;20060;-79
2021/03/15 10:13:27;;;;;;;56.67;29.42;;;6.10;94.30;;;;;;5095306;28;20070;-79
2021/03/15 10:15:53;;;;;;;75.30;37.33;;;6.10;94.40;;;;;;5093379;28;20016;-78
2021/03/15 10:18:20;;;;;;;60.72;32.97;;;6.10;94.50;;;;;;5093491;28;20039;-79
2021/03/15 10:20:50;;;;;;;64.38;33.05;;;6.10;94.60;;;;;;5094378;28;20040;-79
2021/03/15 10:23:21;;;;;;;63.50;33.40;;;6.30;94.60;;;;;;5093602;28;20028;-79
2021/03/15 10:26:00;;;;;;;67.50;33.88;;;6.40;94.60;;;;;;5093514;28;20028;-79
2021/03/15 10:28:28;;;;;;;73.25;36.58;;;6.50;94.60;;;;;;5093460;28;20012;-79
2021/03/15 10:30:54;;;;;;;64.53;31.77;;;6.40;94.40;;;;;;5093358;28;20024;-79
2021/03/15 10:33:21;;;;;;;67.78;33.03;;;6.50;94.50;;;;;;5093011;28;20386;-79
2021/03/15 10:35:49;;;;;;;66.65;32.83;;;6.60;94.40;;;;;;5093048;28;20024;-79
2021/03/15 10:38:17;;;;;;;62.10;32.78;;;6.70;94.50;;;;;;5094341;28;20056;-79
2021/03/15 10:40:42;;;;;;;63.22;32.47;;;6.70;94.40;;;;;;5093182;28;20485;-79
2021/03/15 10:43:17;;;;;;;58.70;30.48;;;6.80;94.30;;;;;;5094300;28;20117;-79
2021/03/15 10:45:43;;;;;;;60.85;31.52;;;6.80;94.20;;;;;;5094532;28;20028;-79
2021/03/15 10:48:09;;;;;;;64.63;33.92;;;6.90;94.30;;;;;;5093451;28;20400;-79
2021/03/15 10:50:41;;;;;;;72.38;37.35;;;7.00;94.20;;;;;;5075953;28;20030;-79
2021/03/15 10:53:16;;;;;;;74.80;37.42;;;6.90;94.00;;;;;;5090361;28;20436;-79
2021/03/15 10:55:41;;;;;;;66.82;33.35;;;6.90;93.90;;;;;;5092935;28;20028;-80
2021/03/15 10:58:10;;;;;;;73.60;40.70;;;7.00;94.10;;;;;;5092646;28;20470;-80
2021/03/15 11:00:59;;;;;;;83.35;42.40;;;7.00;94.00;;;;;;5093995;28;20385;-80
2021/03/15 11:03:30;;;;;;;90.15;44.30;;;7.00;94.00;;;;;;5092817;28;20062;-80
2021/03/15 11:06:10;;;;;;;87.03;45.08;;;7.00;93.90;;;;;;5095051;28;20028;-80
2021/03/15 11:08:37;;;;;;;69.40;35.25;;;7.00;94.00;;;;;;5092749;28;20032;-79
2021/03/15 11:11:20;;;;;;;61.33;30.60;;;7.00;94.00;;;;;;5076583;28;20036;-79
2021/03/15 11:13:48;;;;;;;65.28;32.97;;;7.00;93.80;;;;;;5094144;28;20032;-80
2021/03/15 11:16:43;;;;;;;69.80;35.38;;;7.00;94.00;;;;;;5092607;28;20024;-80
2021/03/15 11:19:12;;;;;;;88.25;54.53;;;7.10;94.10;;;;;;5092649;28;20024;-79
2021/03/15 11:21:40;;;;;;;78.78;45.65;;;7.00;94.00;;;;;;5092141;28;20554;-79
2021/03/15 11:24:06;;;;;;;63.13;35.50;;;7.10;94.10;;;;;;5092285;28;20039;-79
2021/03/15 11:26:49;;;;;;;59.45;33.38;;;7.00;94.20;;;;;;5092520;28;20021;-79
2021/03/15 11:29:20;;;;;;;63.40;34.55;;;7.10;94.20;;;;;;5092605;28;20020;-79
2021/03/15 11:31:51;;;;;;;62.42;32.97;;;7.00;94.30;;;;;;5092340;28;20059;-79
2021/03/15 11:34:20;;;;;;;68.57;35.75;;;7.00;94.30;;;;;;5092536;28;20020;-78
2021/03/15 11:36:47;;;;;;;60.53;33.17;;;7.00;94.40;;;;;;5093997;28;20024;-77
2021/03/15 11:39:13;;;;;;;54.15;28.45;;;7.00;94.40;;;;;;5092179;28;20035;-78
2021/03/15 11:41:41;;;;;;;65.50;34.50;;;7.00;94.40;;;;;;5093618;28;20028;-79
2021/03/15 11:44:07;;;;;;;58.95;31.67;;;7.00;94.50;;;;;;5092335;28;20056;-78
2021/03/15 11:46:33;;;;;;;75.32;38.92;;;6.90;94.70;;;;;;5093253;28;20078;-79
2021/03/15 11:49:00;;;;;;;63.38;33.95;;;6.90;95.00;;;;;;5092601;28;20069;-79
2021/03/15 11:51:28;;;;;;;54.28;29.02;;;6.90;94.80;;;;;;5092667;28;20043;-79
2021/03/15 11:53:55;;;;;;;56.58;31.85;;;7.00;94.80;;;;;;5075788;28;20055;-78
2021/03/15 11:56:21;;;;;;;81.20;40.65;;;7.00;94.80;;;;;;5092646;28;20028;-78
2021/03/15 11:58:47;;;;;;;79.03;41.72;;;7.00;95.40;;;;;;5093946;28;20062;-78
2021/03/15 12:01:14;;;;;;;64.90;34.55;;;7.10;95.20;;;;;;5096510;28;20070;-78
2021/03/15 12:03:39;;;;;;;61.58;33.53;;;7.20;95.20;;;;;;5096319;28;20420;-78
2021/03/15 12:06:05;;;;;;;79.95;41.85;;;7.30;95.10;;;;;;5097374;28;20020;-78
2021/03/15 12:08:32;;;;;;;81.63;43.80;;;7.30;95.00;;;;;;5078983;28;20153;-78
2021/03/15 12:10:59;;;;;;;70.28;38.10;;;7.40;95.30;;;;;;5095885;28;20047;-78
2021/03/15 12:13:26;;;;;;;55.72;31.60;;;7.60;95.20;;;;;;5096177;28;20025;-78
2021/03/15 12:15:53;;;;;;;56.95;31.67;;;7.70;95.00;;;;;;5097200;28;20024;-78
2021/03/15 12:18:19;;;;;;;55.53;31.45;;;7.90;95.00;;;;;;5095958;28;20028;-78
2021/03/15 12:20:45;;;;;;;57.55;31.80;;;8.10;95.00;;;;;;5096833;28;20044;-78
2021/03/15 12:23:12;;;;;;;54.20;32.50;;;8.20;94.90;;;;;;5079239;28;20048;-78
2021/03/15 12:25:39;;;;;;;56.65;30.85;;;8.30;94.40;;;;;;5095512;28;20381;-78
2021/03/15 12:28:08;;;;;;;50.00;29.83;;;8.30;94.20;;;;;;5095810;28;20468;-78
2021/03/15 12:30:36;;;;;;;51.13;30.40;;;8.20;94.00;;;;;;5095740;28;20515;-78
2021/03/15 12:33:02;;;;;;;48.30;28.30;;;8.20;93.90;;;;;;5095692;28;20052;-79
2021/03/15 12:35:29;;;;;;;52.03;30.13;;;8.20;93.60;;;;;;5097271;28;20060;-78
2021/03/15 12:37:56;;;;;;;50.60;29.75;;;8.10;93.60;;;;;;5096573;28;20115;-79
2021/03/15 12:40:22;;;;;;;55.30;30.45;;;8.10;93.70;;;;;;5095549;28;20078;-79
2021/03/15 12:42:48;;;;;;;46.72;28.75;;;8.00;93.50;;;;;;5096914;28;20063;-79
2021/03/15 12:45:14;;;;;;;50.00;29.08;;;7.80;93.50;;;;;;5095276;28;20090;-79
2021/03/15 12:47:40;;;;;;;48.00;27.98;;;7.80;93.40;;;;;;5095685;28;20112;-79
2021/03/15 12:50:07;;;;;;;44.38;25.08;;;7.70;93.40;;;;;;5095554;28;20077;-79
2021/03/15 12:52:34;;;;;;;47.78;27.70;;;7.70;93.60;;;;;;5095265;28;20036;-78
2021/03/15 12:54:59;;;;;;;47.65;26.38;;;7.70;93.60;;;;;;5078617;28;20058;-78
2021/03/15 12:57:25;;;;;;;41.97;25.38;;;7.70;93.70;;;;;;5095189;28;20455;-79